ADDS METAR Data INFO
IDs: Format: Raw Decoded Include TAF

Data at: 1230 UTC 20 Jul 2017

METAR for:PANC (Anchorage Intl, AK, US)
Text:PANC 201153Z 18005KT 10SM FEW020 SCT060 BKN120 13/13 A2986 RMK AO2 SLP111 60002 70035 T01330128 10144 20128 53000
Temperature: 13.3°C ( 56°F)
Dewpoint: 12.8°C ( 55°F) [RH = 97%]
Pressure (altimeter):29.86 inches Hg (1011.3 mb) [Sea level pressure: 1011.1 mb]
Winds:from the S (180 degrees) at 6 MPH (5 knots; 2.6 m/s)
Visibility:10 or more sm (16+ km)
Ceiling:12000 feet AGL
Clouds: few clouds at 2000 feet AGL, scattered clouds at 6000 feet AGL, broken clouds at 12000 feet AGL
Text:PANC 201053Z 36003KT 10SM SCT010 BKN060 OVC100 13/12 A2985 RMK AO2 SLP108 T01330122
Temperature: 13.3°C ( 56°F)
Dewpoint: 12.2°C ( 54°F) [RH = 93%]
Pressure (altimeter):29.85 inches Hg (1010.9 mb) [Sea level pressure: 1010.8 mb]
Winds:from the N (360 degrees) at 3 MPH (3 knots; 1.5 m/s)
Visibility:10 or more sm (16+ km)
Ceiling:6000 feet AGL
Clouds: scattered clouds at 1000 feet AGL, broken clouds at 6000 feet AGL, overcast cloud deck at 10000 feet AGL
Text:PANC 200953Z 00000KT 10SM SCT010 BKN050 OVC070 13/12 A2986 RMK AO2 RAE10 SLP111 P0000 T01330122
Temperature: 13.3°C ( 56°F)
Dewpoint: 12.2°C ( 54°F) [RH = 93%]
Pressure (altimeter):29.86 inches Hg (1011.3 mb) [Sea level pressure: 1011.1 mb]
Winds:calm
Visibility:10 or more sm (16+ km)
Ceiling:5000 feet AGL
Clouds: scattered clouds at 1000 feet AGL, broken clouds at 5000 feet AGL, overcast cloud deck at 7000 feet AGL
Text:PANC 200853Z 01003KT 10SM -RA SCT010 BKN050 OVC070 14/13 A2986 RMK AO2 SLP110 P0001 60002 T01390128 401500128 50007
Temperature: 13.9°C ( 57°F)
Dewpoint: 12.8°C ( 55°F) [RH = 93%]
Pressure (altimeter):29.86 inches Hg (1011.3 mb) [Sea level pressure: 1011.0 mb]
Winds:from the N (10 degrees) at 3 MPH (3 knots; 1.5 m/s)
Visibility:10 or more sm (16+ km)
Ceiling:5000 feet AGL
Clouds: scattered clouds at 1000 feet AGL, broken clouds at 5000 feet AGL, overcast cloud deck at 7000 feet AGL
Weather:-RA (light rain)
Text:PANC 200753Z 17003KT 10SM -RA SCT004 BKN012 OVC065 14/13 A2986 RMK AO2 SLP112 P0001 T01390133
Temperature: 13.9°C ( 57°F)
Dewpoint: 13.3°C ( 56°F) [RH = 96%]
Pressure (altimeter):29.86 inches Hg (1011.3 mb) [Sea level pressure: 1011.2 mb]
Winds:from the S (170 degrees) at 3 MPH (3 knots; 1.5 m/s)
Visibility:10 or more sm (16+ km)
Ceiling:1200 feet AGL
Clouds: scattered clouds at 400 feet AGL, broken clouds at 1200 feet AGL, overcast cloud deck at 6500 feet AGL
Weather:-RA (light rain)
Text:PANC 200653Z 19003KT 10SM -RA FEW004 SCT012 OVC095 14/14 A2985 RMK AO2 SLP107 CIG LWR NW-NE P0000 T01440139
Temperature: 14.4°C ( 58°F)
Dewpoint: 13.9°C ( 57°F) [RH = 97%]
Pressure (altimeter):29.85 inches Hg (1010.9 mb) [Sea level pressure: 1010.7 mb]
Winds:from the S (190 degrees) at 3 MPH (3 knots; 1.5 m/s)
Visibility:10 or more sm (16+ km)
Ceiling:9500 feet AGL
Clouds: few clouds at 400 feet AGL, scattered clouds at 1200 feet AGL, overcast cloud deck at 9500 feet AGL
Weather:-RA (light rain)

TAF for:PANC (Anchorage Intl, AK, US) issued at 1140 UTC 20 Jul 2017
Text:PANC 201140Z 2012/2118 VRB04KT P6SM SCT015 BKN060 OVC100
Forecast period:1200 to 2300 UTC 20 July 2017
Forecast type:FROM: standard forecast or significant change
Winds:variable direction winds at 5 MPH (4 knots; 2.1 m/s)
Visibility:6 or more sm (10+ km)
Ceiling:6000 feet AGL
Clouds: scattered clouds at 1500 feet AGL, broken clouds at 6000 feet AGL, overcast cloud deck at 10000 feet AGL
Text:FM202300 16010G17KT P6SM BKN100
Forecast period:2300 UTC 20 July 2017 to 0700 UTC 21 July 2017
Forecast type:FROM: standard forecast or significant change
Winds:from the SSE (160 degrees) at 12 MPH (10 knots; 5.1 m/s) gusting to 20 MPH (17 knots; 8.7 m/s)
Visibility:6 or more sm (10+ km)
Ceiling:10000 feet AGL
Clouds: broken clouds at 10000 feet AGL
Text:FM210700 VRB05KT P6SM SCT100
Forecast period:0700 to 1800 UTC 21 July 2017
Forecast type:FROM: standard forecast or significant change
Winds:variable direction winds at 6 MPH (5 knots; 2.6 m/s)
Visibility:6 or more sm (10+ km)
Ceiling:at least 12,000 feet AGL
Clouds: scattered clouds at 10000 feet AGL